Time;durP1;ratioP1;P1;durP2;ratioP2;P2;SDS_P1;SDS_P2;PMS_P1;PMS_P2;Temp;Humidity;BMP_temperature;BMP_pressure;BME280_temperature;BME280_humidity;BME280_pressure;Samples;Min_cycle;Max_cycle;Signal;HPM_P1;HPM_P2
2022/08/01 00:00:49;;;;;;;0.70;0.20;;;25.60;99.90;;;;;;4975327;28;20950;-65
2022/08/01 00:03:17;;;;;;;0.70;0.10;;;25.60;99.90;;;;;;4976219;28;20841;-66
2022/08/01 00:05:46;;;;;;;0.70;0.10;;;25.60;99.90;;;;;;4975834;28;20493;-67
2022/08/01 00:08:14;;;;;;;0.70;0.10;;;25.70;99.90;;;;;;4975718;28;20454;-67
2022/08/01 00:10:43;;;;;;;0.70;0.10;;;25.60;99.90;;;;;;4975307;28;20950;-66
2022/08/01 00:13:11;;;;;;;0.70;0.20;;;25.50;99.90;;;;;;4974427;28;21020;-67
2022/08/01 00:15:39;;;;;;;0.70;0.10;;;25.60;99.90;;;;;;4974169;28;20956;-68
2022/08/01 00:18:07;;;;;;;0.70;0.20;;;25.50;99.90;;;;;;4974588;28;20449;-69
2022/08/01 00:20:35;;;;;;;0.70;0.10;;;25.50;99.90;;;;;;4975142;28;20446;-68
2022/08/01 00:23:03;;;;;;;0.70;0.10;;;25.50;99.90;;;;;;4975002;28;20469;-69
2022/08/01 00:25:31;;;;;;;0.70;0.10;;;25.50;99.90;;;;;;4974647;28;20478;-68
2022/08/01 00:28:03;;;;;;;0.70;0.10;;;25.50;99.90;;;;;;4974726;28;20444;-67
2022/08/01 00:30:34;;;;;;;0.70;0.17;;;25.40;99.90;;;;;;4974631;28;20448;-70
2022/08/01 00:33:02;;;;;;;0.70;0.10;;;25.30;99.90;;;;;;4974173;28;20478;-66
2022/08/01 00:35:30;;;;;;;0.70;0.20;;;;;;;;;;4974334;28;20445;-66
2022/08/01 00:37:58;;;;;;;0.70;0.10;;;25.30;99.90;;;;;;4974492;28;20532;-70
2022/08/01 00:40:26;;;;;;;0.70;0.10;;;25.20;99.90;;;;;;4974212;28;20450;-67
2022/08/01 00:42:54;;;;;;;0.70;0.20;;;25.20;99.90;;;;;;4974448;28;20473;-67
2022/08/01 00:45:23;;;;;;;0.70;0.20;;;25.20;99.90;;;;;;4974204;28;20506;-68
2022/08/01 00:47:52;;;;;;;0.70;0.20;;;24.00;99.90;;;;;;4972974;28;20537;-67
2022/08/01 00:50:22;;;;;;;0.70;0.10;;;25.10;99.90;;;;;;4974196;28;20923;-68
2022/08/01 00:52:52;;;;;;;0.70;0.10;;;25.00;99.90;;;;;;4972849;28;20529;-70
2022/08/01 00:55:20;;;;;;;0.70;0.20;;;25.00;99.90;;;;;;4971867;28;20453;-68
2022/08/01 00:57:49;;;;;;;0.70;0.10;;;25.00;99.90;;;;;;4971760;28;20458;-68
2022/08/01 01:00:36;;;;;;;0.70;0.10;;;25.00;99.90;;;;;;4971939;28;20818;-67
2022/08/01 01:03:22;;;;;;;0.70;0.10;;;25.00;99.90;;;;;;4971823;28;20469;-67
2022/08/01 01:06:22;;;;;;;0.70;0.20;;;24.90;99.90;;;;;;4972182;28;20474;-67
2022/08/01 01:08:59;;;;;;;0.70;0.20;;;24.90;99.90;;;;;;4973131;28;20472;-68
2022/08/01 01:11:43;;;;;;;0.70;0.10;;;24.90;99.90;;;;;;4973884;28;20453;-67
2022/08/01 01:14:22;;;;;;;0.70;0.20;;;24.90;99.90;;;;;;4973568;28;20454;-68
2022/08/01 01:16:54;;;;;;;0.70;0.10;;;24.80;99.90;;;;;;4973246;28;20450;-70
2022/08/01 01:19:27;;;;;;;0.70;0.10;;;24.80;99.90;;;;;;4973072;28;20469;-67
2022/08/01 01:22:10;;;;;;;0.70;0.20;;;24.80;99.90;;;;;;4972981;28;20450;-68
2022/08/01 01:24:46;;;;;;;0.70;0.20;;;24.80;99.90;;;;;;4972934;28;20998;-69
2022/08/01 01:27:24;;;;;;;0.70;0.20;;;24.70;99.90;;;;;;4973132;28;20536;-67
2022/08/01 01:29:56;;;;;;;0.70;0.20;;;24.70;99.90;;;;;;4971233;28;20473;-67
2022/08/01 01:32:34;;;;;;;0.90;0.40;;;24.70;99.90;;;;;;4971477;28;20493;-67
2022/08/01 01:35:06;;;;;;;0.70;0.20;;;24.70;99.90;;;;;;4972057;28;20935;-67
2022/08/01 01:37:36;;;;;;;0.70;0.20;;;24.60;99.90;;;;;;4972996;28;20446;-66
2022/08/01 01:40:06;;;;;;;0.70;0.10;;;24.50;99.90;;;;;;4973126;28;20449;-67
2022/08/01 01:42:35;;;;;;;0.70;0.20;;;24.50;99.90;;;;;;4973057;28;20472;-69
2022/08/01 01:45:06;;;;;;;0.70;0.20;;;24.50;99.90;;;;;;4973007;28;20509;-67
2022/08/01 01:47:37;;;;;;;0.70;0.10;;;24.50;99.90;;;;;;4972332;28;20446;-67
2022/08/01 01:50:08;;;;;;;0.70;0.20;;;24.50;99.90;;;;;;4972860;28;20450;-67
2022/08/01 01:52:37;;;;;;;0.70;0.10;;;24.50;99.90;;;;;;4972584;28;20561;-67
2022/08/01 01:55:08;;;;;;;0.70;0.10;;;24.50;99.90;;;;;;4972746;28;20449;-67
2022/08/01 01:57:39;;;;;;;0.70;0.20;;;24.50;99.90;;;;;;4973026;28;20454;-69
2022/08/01 02:00:11;;;;;;;0.70;0.20;;;24.50;99.90;;;;;;4976600;28;20473;-69
2022/08/01 02:02:40;;;;;;;0.70;0.10;;;24.40;99.90;;;;;;4976742;28;20545;-68
2022/08/01 02:05:10;;;;;;;0.70;0.20;;;24.40;99.90;;;;;;4976676;28;20482;-67
2022/08/01 02:07:40;;;;;;;0.70;0.10;;;24.40;99.90;;;;;;4976451;28;20946;-66
2022/08/01 02:10:10;;;;;;;0.70;0.10;;;24.40;99.90;;;;;;4976949;28;20468;-67
2022/08/01 02:12:42;;;;;;;0.70;0.10;;;24.30;99.90;;;;;;4976818;28;20473;-68
2022/08/01 02:15:13;;;;;;;0.70;0.10;;;24.30;99.90;;;;;;4977141;28;20445;-69
2022/08/01 02:17:44;;;;;;;0.70;0.10;;;24.30;99.90;;;;;;4976929;28;20450;-67
2022/08/01 02:20:13;;;;;;;0.70;0.13;;;24.30;99.90;;;;;;4976694;28;20458;-69
2022/08/01 02:22:45;;;;;;;0.70;0.20;;;24.30;99.90;;;;;;4976773;28;20837;-68
2022/08/01 02:25:21;;;;;;;0.70;0.10;;;24.30;99.90;;;;;;4976940;28;20481;-67
2022/08/01 02:27:58;;;;;;;0.70;0.10;;;24.30;99.90;;;;;;4976373;28;20445;-67
2022/08/01 02:30:30;;;;;;;0.70;0.10;;;24.20;99.90;;;;;;4957733;28;20822;-65
2022/08/01 02:33:03;;;;;;;0.70;0.20;;;24.20;99.90;;;;;;4958253;28;20740;-66
2022/08/01 02:35:34;;;;;;;0.70;0.10;;;24.20;99.90;;;;;;4957877;28;20443;-68
2022/08/01 02:38:25;;;;;;;0.70;0.10;;;24.10;99.90;;;;;;4957132;28;20447;-67
2022/08/01 02:40:57;;;;;;;0.70;0.20;;;24.00;99.90;;;;;;4957187;28;20450;-66
2022/08/01 02:43:29;;;;;;;0.70;0.10;;;24.00;99.90;;;;;;4969490;28;20474;-66
2022/08/01 02:46:03;;;;;;;0.70;0.20;;;23.90;99.90;;;;;;4976424;28;20500;-67
2022/08/01 02:48:34;;;;;;;0.70;0.10;;;23.90;99.90;;;;;;4976168;28;20950;-69
2022/08/01 02:51:04;;;;;;;0.70;0.20;;;23.90;99.90;;;;;;4976050;28;20943;-67
2022/08/01 02:53:36;;;;;;;0.70;0.10;;;23.90;99.90;;;;;;4975876;28;20474;-67
2022/08/01 02:56:14;;;;;;;0.70;0.10;;;23.80;99.90;;;;;;4975612;28;20464;-67
2022/08/01 02:58:43;;;;;;;0.70;0.10;;;23.90;99.90;;;;;;4975863;28;20450;-68
2022/08/01 03:01:16;;;;;;;0.70;0.20;;;23.90;99.90;;;;;;4975993;28;20553;-68
2022/08/01 03:03:47;;;;;;;0.70;0.17;;;23.80;99.90;;;;;;4975633;28;21001;-66
2022/08/01 03:06:16;;;;;;;0.70;0.20;;;23.80;99.90;;;;;;4976733;28;20478;-66
2022/08/01 03:08:45;;;;;;;0.70;0.10;;;23.80;99.90;;;;;;4977505;28;20446;-66
2022/08/01 03:11:14;;;;;;;0.70;0.10;;;23.80;99.90;;;;;;4977226;28;20450;-68
2022/08/01 03:13:43;;;;;;;0.70;0.23;;;23.70;99.90;;;;;;4976385;28;20458;-69
2022/08/01 03:16:15;;;;;;;0.70;0.10;;;23.70;99.90;;;;;;4976102;28;20910;-67
2022/08/01 03:18:45;;;;;;;0.70;0.10;;;23.70;99.90;;;;;;4975602;28;20468;-66
2022/08/01 03:21:15;;;;;;;0.70;0.10;;;23.70;99.90;;;;;;4975438;28;20446;-66
2022/08/01 03:23:45;;;;;;;0.70;0.10;;;23.60;99.90;;;;;;4975624;28;20466;-68
2022/08/01 03:26:14;;;;;;;0.70;0.10;;;23.70;99.90;;;;;;4972789;28;21016;-67
2022/08/01 03:28:43;;;;;;;0.70;0.20;;;23.70;99.90;;;;;;4975314;28;20446;-67
2022/08/01 03:31:15;;;;;;;0.70;0.20;;;23.70;99.90;;;;;;4975199;28;20529;-68
2022/08/01 03:33:43;;;;;;;0.70;0.10;;;23.70;99.90;;;;;;4975296;28;20974;-67
2022/08/01 03:36:13;;;;;;;0.70;0.20;;;23.70;99.90;;;;;;4975017;28;20450;-68
2022/08/01 03:38:42;;;;;;;0.70;0.20;;;23.80;99.90;;;;;;4975139;28;20439;-65
2022/08/01 03:41:14;;;;;;;0.70;0.20;;;23.80;99.90;;;;;;4975426;28;20445;-67
2022/08/01 03:43:46;;;;;;;0.70;0.20;;;23.80;99.90;;;;;;4975318;28;20478;-67
2022/08/01 03:46:21;;;;;;;0.70;0.20;;;23.70;99.90;;;;;;4975460;28;20485;-66
2022/08/01 03:48:56;;;;;;;0.70;0.20;;;23.80;99.90;;;;;;4975312;28;20446;-66
2022/08/01 03:51:25;;;;;;;0.70;0.20;;;23.80;99.90;;;;;;4975038;28;20450;-67
2022/08/01 03:53:56;;;;;;;0.70;0.13;;;23.70;99.90;;;;;;4974945;28;20478;-70
2022/08/01 03:56:24;;;;;;;0.70;0.10;;;23.70;99.90;;;;;;4974852;28;20950;-66
2022/08/01 03:58:53;;;;;;;0.70;0.10;;;;;;;;;;4974923;28;20456;-67
2022/08/01 04:01:22;;;;;;;0.70;0.10;;;23.60;99.90;;;;;;4975424;28;20449;-70
2022/08/01 04:03:50;;;;;;;0.70;0.10;;;23.60;99.90;;;;;;4975007;28;20474;-66
2022/08/01 04:06:19;;;;;;;0.70;0.10;;;23.60;99.90;;;;;;4975540;28;20521;-67
2022/08/01 04:08:55;;;;;;;0.70;0.20;;;23.60;99.90;;;;;;4974678;28;20450;-66
2022/08/01 04:11:24;;;;;;;0.70;0.10;;;23.60;99.90;;;;;;4975032;28;20452;-67
2022/08/01 04:13:53;;;;;;;0.70;0.20;;;23.40;99.90;;;;;;4975244;28;20472;-67
2022/08/01 04:16:23;;;;;;;0.70;0.20;;;23.40;99.90;;;;;;4974438;28;20466;-66
2022/08/01 04:18:51;;;;;;;0.70;0.10;;;23.40;99.90;;;;;;4974450;28;20946;-67
2022/08/01 04:21:23;;;;;;;0.70;0.20;;;23.40;99.90;;;;;;4973583;28;20450;-68
2022/08/01 04:23:53;;;;;;;0.70;0.10;;;23.40;99.90;;;;;;4974841;28;20506;-70
2022/08/01 04:26:23;;;;;;;0.70;0.10;;;21.70;99.90;;;;;;4974165;28;20481;-67
2022/08/01 04:28:54;;;;;;;0.70;0.20;;;23.50;99.90;;;;;;4974270;28;20545;-67
2022/08/01 04:31:26;;;;;;;0.70;0.20;;;23.40;99.90;;;;;;4974157;28;20449;-68
2022/08/01 04:33:56;;;;;;;0.70;0.20;;;23.50;99.90;;;;;;4974698;28;20484;-69
2022/08/01 04:36:25;;;;;;;0.70;0.10;;;23.30;99.90;;;;;;4973745;28;20447;-69
2022/08/01 04:38:58;;;;;;;0.70;0.10;;;23.20;99.90;;;;;;4974179;28;20449;-69
2022/08/01 04:41:26;;;;;;;0.70;0.13;;;23.10;99.90;;;;;;4974186;28;20486;-70
2022/08/01 04:43:55;;;;;;;0.70;0.10;;;23.00;99.90;;;;;;4973731;28;21014;-68
2022/08/01 04:46:24;;;;;;;0.70;0.20;;;22.90;99.90;;;;;;4973790;28;20478;-69
2022/08/01 04:48:54;;;;;;;0.70;0.10;;;23.00;99.90;;;;;;4973758;28;20450;-68
2022/08/01 04:51:22;;;;;;;0.80;0.30;;;23.00;99.90;;;;;;4974207;28;20469;-69
2022/08/01 04:53:51;;;;;;;0.80;0.30;;;22.90;99.90;;;;;;4974333;28;20470;-68
2022/08/01 04:56:20;;;;;;;0.70;0.10;;;22.90;99.90;;;;;;4973714;28;20854;-69
2022/08/01 04:59:39;;;;;;;0.70;0.20;;;23.00;99.90;;;;;;4973750;28;20450;-69
2022/08/01 05:01:51;;;;;;;0.70;0.20;;;23.00;99.90;;;;;;4973667;28;20509;-69
2022/08/01 05:04:19;;;;;;;0.70;0.13;;;23.00;99.90;;;;;;4973098;28;20450;-70
2022/08/01 05:06:47;;;;;;;0.70;0.20;;;23.10;99.90;;;;;;4973175;28;20493;-70
2022/08/01 05:09:15;;;;;;;0.70;0.20;;;23.10;99.90;;;;;;4973551;28;20446;-70
2022/08/01 05:11:43;;;;;;;0.70;0.10;;;23.30;99.90;;;;;;4973627;28;20450;-70
2022/08/01 05:14:11;;;;;;;0.70;0.10;;;23.30;99.90;;;;;;4973429;28;20447;-69
2022/08/01 05:16:39;;;;;;;0.70;0.20;;;23.30;99.90;;;;;;4972858;28;20451;-69
2022/08/01 05:19:09;;;;;;;0.70;0.20;;;23.30;99.90;;;;;;4973678;28;20453;-68
2022/08/01 05:21:37;;;;;;;0.70;0.10;;;23.30;99.90;;;;;;4973414;28;20458;-69
2022/08/01 05:24:06;;;;;;;0.70;0.10;;;23.30;99.90;;;;;;4974487;28;20457;-71
2022/08/01 05:26:35;;;;;;;0.70;0.20;;;23.40;99.90;;;;;;4965265;28;20449;-73
2022/08/01 05:29:03;;;;;;;0.70;0.20;;;23.40;99.90;;;;;;4965391;28;20466;-74
2022/08/01 05:31:33;;;;;;;0.70;0.20;;;23.40;99.90;;;;;;4973369;28;20553;-75
2022/08/01 05:34:01;;;;;;;0.70;0.10;;;23.40;99.90;;;;;;4973487;28;20482;-71
2022/08/01 05:36:31;;;;;;;0.70;0.10;;;23.40;99.90;;;;;;4974709;28;20538;-74
2022/08/01 05:38:59;;;;;;;0.70;0.10;;;23.50;99.90;;;;;;4973550;28;20438;-71
2022/08/01 05:41:27;;;;;;;0.70;0.10;;;23.50;99.90;;;;;;4973343;28;20513;-73
2022/08/01 05:43:55;;;;;;;0.70;0.20;;;23.50;99.90;;;;;;4973204;28;20493;-71
2022/08/01 05:46:23;;;;;;;0.80;0.20;;;23.40;99.90;;;;;;4972906;28;20456;-70
2022/08/01 05:48:54;;;;;;;0.70;0.10;;;23.30;99.90;;;;;;4973934;28;20565;-71
2022/08/01 05:51:22;;;;;;;0.70;0.10;;;23.30;99.90;;;;;;4973539;28;20869;-70
2022/08/01 05:53:52;;;;;;;0.70;0.20;;;;;;;;;;4974229;28;20473;-70
2022/08/01 05:56:20;;;;;;;0.70;0.20;;;23.20;99.90;;;;;;4972874;28;20447;-70
2022/08/01 05:58:49;;;;;;;0.70;0.20;;;23.20;99.90;;;;;;4956716;28;20634;-69
2022/08/01 06:01:17;;;;;;;0.70;0.10;;;23.20;99.90;;;;;;4970427;28;20467;-70
2022/08/01 06:03:45;;;;;;;0.70;0.20;;;23.30;99.90;;;;;;4972676;28;21061;-70
2022/08/01 06:06:13;;;;;;;0.70;0.10;;;23.30;99.90;;;;;;4971968;28;20466;-70
2022/08/01 06:08:42;;;;;;;0.70;0.20;;;23.30;99.90;;;;;;4974340;28;20478;-70
2022/08/01 06:11:11;;;;;;;0.70;0.17;;;23.40;99.90;;;;;;4973093;28;20810;-71
2022/08/01 06:13:40;;;;;;;0.70;0.30;;;23.30;99.90;;;;;;4957409;28;20462;-71
2022/08/01 06:16:21;;;;;;;1.47;0.63;;;;;;;;;;4970378;28;20445;-70
2022/08/01 06:18:50;;;;;;;0.70;0.20;;;23.20;99.90;;;;;;4971169;28;20504;-70
2022/08/01 06:21:23;;;;;;;0.70;0.10;;;23.00;99.90;;;;;;4952593;28;20890;-72
2022/08/01 06:23:51;;;;;;;0.70;0.10;;;23.00;99.90;;;;;;4951956;28;20475;-69
2022/08/01 06:26:20;;;;;;;0.70;0.20;;;23.00;99.90;;;;;;4955180;28;20810;-69
2022/08/01 06:28:48;;;;;;;0.70;0.30;;;23.10;99.90;;;;;;4961945;28;20482;-71
2022/08/01 06:31:16;;;;;;;0.80;0.30;;;23.00;99.90;;;;;;4956995;28;20782;-71
2022/08/01 06:33:44;;;;;;;0.70;0.10;;;23.00;99.90;;;;;;4952367;28;20484;-68
2022/08/01 06:36:11;;;;;;;0.70;0.30;;;23.00;99.90;;;;;;4952119;28;20477;-69
2022/08/01 06:38:40;;;;;;;0.70;0.20;;;23.10;99.90;;;;;;4952051;28;20447;-69
2022/08/01 06:41:07;;;;;;;0.70;0.10;;;23.10;99.90;;;;;;4951735;28;20974;-70
2022/08/01 06:43:37;;;;;;;0.70;0.27;;;23.10;99.90;;;;;;4966302;28;20476;-69
2022/08/01 06:46:05;;;;;;;0.70;0.10;;;23.20;99.90;;;;;;4974938;28;20446;-69
2022/08/01 06:48:35;;;;;;;0.70;0.10;;;23.30;99.90;;;;;;4974902;28;20482;-69
2022/08/01 06:51:08;;;;;;;0.70;0.10;;;24.00;99.90;;;;;;4975300;28;20549;-70
2022/08/01 06:53:37;;;;;;;0.70;0.10;;;23.50;99.90;;;;;;4975507;28;20553;-73
2022/08/01 06:56:06;;;;;;;0.70;0.10;;;25.30;99.90;;;;;;4974489;28;20466;-72
2022/08/01 06:58:35;;;;;;;0.70;0.10;;;23.70;99.90;;;;;;4965497;28;20509;-72
2022/08/01 07:01:06;;;;;;;0.70;0.30;;;23.70;99.90;;;;;;4959158;28;20467;-73
2022/08/01 07:03:35;;;;;;;0.70;0.10;;;23.90;99.90;;;;;;4956009;28;20471;-71
2022/08/01 07:06:22;;;;;;;0.70;0.10;;;23.90;99.90;;;;;;4963637;28;20450;-69
2022/08/01 07:08:50;;;;;;;0.70;0.10;;;23.90;99.90;;;;;;4974391;28;20999;-68
2022/08/01 07:11:19;;;;;;;0.70;0.10;;;23.90;99.90;;;;;;4974825;28;20450;-68
2022/08/01 07:13:47;;;;;;;0.70;0.10;;;24.00;99.90;;;;;;4974169;28;20469;-70
2022/08/01 07:16:16;;;;;;;0.70;0.10;;;24.00;99.90;;;;;;4973743;28;20457;-70
2022/08/01 07:18:44;;;;;;;0.70;0.10;;;24.00;99.90;;;;;;4974472;28;20442;-69
2022/08/01 07:21:12;;;;;;;0.70;0.10;;;24.00;99.90;;;;;;4973762;28;20465;-70
2022/08/01 07:24:00;;;;;;;0.70;0.10;;;24.00;99.90;;;;;;4974244;28;20476;-70
2022/08/01 07:26:28;;;;;;;0.70;0.10;;;24.10;99.90;;;;;;4970676;28;20450;-69
2022/08/01 07:28:56;;;;;;;0.70;0.10;;;24.20;99.90;;;;;;4966119;28;20514;-70
2022/08/01 07:31:26;;;;;;;0.70;0.20;;;24.20;99.90;;;;;;4955009;28;20473;-69
2022/08/01 07:33:58;;;;;;;0.70;0.13;;;24.30;99.90;;;;;;4954135;28;20482;-70
2022/08/01 07:36:26;;;;;;;0.73;0.20;;;24.30;99.90;;;;;;4954513;28;20823;-70
2022/08/01 07:38:54;;;;;;;0.70;0.10;;;24.30;99.90;;;;;;4972387;28;20454;-69
2022/08/01 07:41:22;;;;;;;0.70;0.20;;;24.30;99.90;;;;;;4973813;28;20540;-69
2022/08/01 07:44:10;;;;;;;0.80;0.47;;;24.30;99.90;;;;;;4973211;28;20461;-70
2022/08/01 07:46:39;;;;;;;0.80;0.37;;;24.30;99.90;;;;;;4954424;28;20523;-68
2022/08/01 07:49:08;;;;;;;0.70;0.20;;;24.20;99.90;;;;;;4954370;28;20515;-68
2022/08/01 07:51:36;;;;;;;1.80;0.67;;;24.10;99.90;;;;;;4954371;28;20549;-70
2022/08/01 07:54:04;;;;;;;0.80;0.30;;;24.10;99.90;;;;;;4954283;28;20470;-68
2022/08/01 07:56:31;;;;;;;0.70;0.10;;;24.00;99.90;;;;;;4956424;28;20989;-71
2022/08/01 07:58:59;;;;;;;1.10;0.30;;;24.00;99.90;;;;;;4964327;28;21022;-68
2022/08/01 08:01:27;;;;;;;0.70;0.20;;;24.00;99.90;;;;;;4968290;28;20554;-69
2022/08/01 08:03:57;;;;;;;0.70;0.30;;;24.10;99.90;;;;;;4973360;28;20473;-70
2022/08/01 08:06:25;;;;;;;1.63;1.13;;;24.10;99.90;;;;;;4973871;28;20450;-71
2022/08/01 08:08:53;;;;;;;0.70;0.20;;;24.20;99.90;;;;;;4973550;28;20486;-74
2022/08/01 08:11:21;;;;;;;0.70;0.10;;;24.20;99.90;;;;;;4974246;28;20456;-75
2022/08/01 08:13:50;;;;;;;0.70;0.10;;;24.40;99.90;;;;;;4972408;28;20481;-74
2022/08/01 08:16:17;;;;;;;0.70;0.10;;;24.50;99.90;;;;;;4974929;28;20453;-73
2022/08/01 08:18:45;;;;;;;0.70;0.20;;;24.60;99.90;;;;;;4975363;28;20442;-75
2022/08/01 08:21:14;;;;;;;0.70;0.10;;;24.80;99.90;;;;;;4974915;28;20454;-74
2022/08/01 08:26:28;;;;;;;0.70;0.20;;;24.90;99.90;;;;;;4976568;28;20434;-76
2022/08/01 08:28:56;;;;;;;0.70;0.20;;;25.10;99.90;;;;;;4975888;28;20493;-71
2022/08/01 08:31:24;;;;;;;0.70;0.10;;;25.10;99.90;;;;;;4975572;28;20530;-73
2022/08/01 08:34:12;;;;;;;0.70;0.10;;;25.10;99.90;;;;;;4973779;28;20524;-75
2022/08/01 08:36:45;;;;;;;0.70;0.10;;;25.10;99.90;;;;;;4974116;28;20621;-74
2022/08/01 08:39:14;;;;;;;0.70;0.10;;;25.10;99.90;;;;;;4974022;28;20542;-74
2022/08/01 08:41:44;;;;;;;0.70;0.20;;;25.10;99.90;;;;;;4974258;28;20504;-73
2022/08/01 08:44:17;;;;;;;0.70;0.10;;;25.10;99.90;;;;;;4975251;28;20434;-73
2022/08/01 08:46:46;;;;;;;0.70;0.10;;;25.10;99.90;;;;;;4974061;28;20510;-74
2022/08/01 08:49:18;;;;;;;0.90;0.50;;;25.10;99.90;;;;;;4971691;28;20496;-75
2022/08/01 08:51:50;;;;;;;0.70;0.10;;;25.10;99.90;;;;;;4973600;28;20453;-75
2022/08/01 08:54:20;;;;;;;0.70;0.10;;;25.10;99.90;;;;;;4975726;28;20939;-72
2022/08/01 08:56:48;;;;;;;0.70;0.10;;;25.10;99.90;;;;;;4972308;28;20678;-74
2022/08/01 08:59:16;;;;;;;0.70;0.13;;;25.10;99.90;;;;;;4975455;28;20438;-72
2022/08/01 09:01:44;;;;;;;0.70;0.10;;;25.20;99.90;;;;;;4974965;28;20449;-73
2022/08/01 09:04:13;;;;;;;0.70;0.20;;;25.20;99.90;;;;;;4975745;28;20474;-74
2022/08/01 09:06:41;;;;;;;0.70;0.10;;;25.20;99.90;;;;;;4976076;28;20452;-74
2022/08/01 09:09:11;;;;;;;0.70;0.13;;;25.30;99.90;;;;;;4976226;28;20489;-73
2022/08/01 09:11:39;;;;;;;0.70;0.20;;;;;;;;;;4975476;28;20450;-75
2022/08/01 09:14:09;;;;;;;0.70;0.20;;;25.40;99.90;;;;;;4976575;28;20446;-74
2022/08/01 09:16:41;;;;;;;0.70;0.10;;;25.50;99.90;;;;;;4976452;28;20435;-74
2022/08/01 09:19:17;;;;;;;0.70;0.10;;;25.50;99.90;;;;;;4976249;28;20883;-73
2022/08/01 09:22:08;;;;;;;0.70;0.20;;;25.60;99.90;;;;;;4980286;28;20466;-75
2022/08/01 09:24:40;;;;;;;0.70;0.20;;;25.60;99.90;;;;;;4979683;28;20450;-75
2022/08/01 09:27:18;;;;;;;0.70;0.10;;;25.60;99.90;;;;;;4988616;28;20506;-75
2022/08/01 09:29:49;;;;;;;0.70;0.20;;;25.70;99.90;;;;;;4989846;28;20476;-73
2022/08/01 09:32:30;;;;;;;0.70;0.20;;;25.80;99.90;;;;;;4985273;28;20474;-74
2022/08/01 09:35:24;;;;;;;0.70;0.10;;;25.90;99.90;;;;;;4981413;28;20557;-74
2022/08/01 09:38:18;;;;;;;0.70;0.10;;;25.90;99.90;;;;;;4979760;28;20442;-75
2022/08/01 09:40:53;;;;;;;0.70;0.10;;;26.20;99.90;;;;;;4980597;28;20438;-76
2022/08/01 09:43:25;;;;;;;0.70;0.20;;;26.30;99.90;;;;;;4975373;28;20498;-74
2022/08/01 09:45:54;;;;;;;0.70;0.10;;;26.30;99.90;;;;;;4974172;28;20938;-77
2022/08/01 09:48:25;;;;;;;0.70;0.20;;;26.50;99.90;;;;;;4973945;28;20444;-75
2022/08/01 09:50:57;;;;;;;0.70;0.10;;;26.50;99.90;;;;;;4973497;28;20930;-76
2022/08/01 09:53:43;;;;;;;0.70;0.10;;;26.50;99.90;;;;;;4976649;28;20484;-77
2022/08/01 09:56:22;;;;;;;0.70;0.10;;;26.60;99.90;;;;;;4973669;28;20450;-76
2022/08/01 09:58:55;;;;;;;0.70;0.10;;;26.70;99.90;;;;;;4974201;28;20451;-76
2022/08/01 10:01:28;;;;;;;0.90;0.73;;;26.80;99.90;;;;;;4971159;28;20511;-76
2022/08/01 10:04:10;;;;;;;0.70;0.10;;;26.80;99.90;;;;;;4973710;28;20446;-76
2022/08/01 10:06:42;;;;;;;0.70;0.27;;;26.70;99.90;;;;;;4974278;28;20528;-76
2022/08/01 10:09:11;;;;;;;0.70;0.20;;;26.70;99.90;;;;;;4973238;28;20873;-76
2022/08/01 10:11:43;;;;;;;0.70;0.17;;;26.90;99.90;;;;;;4974462;28;20458;-76
2022/08/01 10:14:14;;;;;;;0.70;0.10;;;26.90;99.90;;;;;;4975141;28;20473;-75
2022/08/01 10:16:48;;;;;;;0.70;0.20;;;27.10;99.90;;;;;;4974263;28;20450;-76
2022/08/01 10:19:22;;;;;;;0.70;0.10;;;27.10;99.90;;;;;;4974113;28;20433;-76
2022/08/01 10:21:53;;;;;;;0.70;0.20;;;27.20;99.90;;;;;;4977320;28;20481;-76
2022/08/01 10:24:27;;;;;;;0.70;0.20;;;27.40;99.90;;;;;;4977671;28;20461;-75
2022/08/01 10:27:02;;;;;;;0.70;0.10;;;27.30;99.90;;;;;;4977193;28;20496;-76
2022/08/01 10:29:38;;;;;;;0.70;0.10;;;27.50;99.90;;;;;;4977820;28;20676;-75
2022/08/01 10:32:25;;;;;;;0.70;0.20;;;27.70;99.90;;;;;;4976679;28;20484;-76
2022/08/01 10:34:56;;;;;;;0.70;0.13;;;27.80;99.90;;;;;;4976481;28;20465;-77
2022/08/01 10:37:25;;;;;;;0.70;0.20;;;27.80;99.90;;;;;;4976490;28;20863;-76
2022/08/01 10:39:54;;;;;;;0.70;0.20;;;27.80;99.90;;;;;;4976776;28;20484;-75
2022/08/01 10:42:45;;;;;;;0.70;0.30;;;27.80;99.90;;;;;;4976711;28;20462;-75
2022/08/01 10:45:16;;;;;;;0.70;0.10;;;27.70;99.90;;;;;;4978001;28;20434;-76
2022/08/01 10:47:48;;;;;;;0.70;0.20;;;;;;;;;;4980172;28;20469;-76
2022/08/01 10:50:25;;;;;;;0.70;0.20;;;27.90;99.90;;;;;;4978797;28;20532;-74
2022/08/01 10:53:11;;;;;;;0.70;0.10;;;27.80;99.90;;;;;;4977295;28;20504;-75
2022/08/01 10:55:48;;;;;;;2.80;0.60;;;27.80;99.90;;;;;;4976661;28;20442;-76
2022/08/01 10:58:23;;;;;;;0.70;0.20;;;28.00;99.90;;;;;;4976110;28;20513;-76
2022/08/01 11:01:17;;;;;;;0.70;0.17;;;28.10;99.90;;;;;;4977412;28;20481;-75
2022/08/01 11:03:59;;;;;;;1.17;0.80;;;28.00;99.90;;;;;;4976303;28;20490;-74
2022/08/01 11:06:40;;;;;;;0.70;0.20;;;28.00;99.90;;;;;;4975577;28;20465;-76
2022/08/01 11:09:23;;;;;;;0.70;0.10;;;28.00;99.90;;;;;;4968424;28;20446;-74
2022/08/01 11:12:07;;;;;;;1.10;0.80;;;27.70;99.90;;;;;;4979751;28;21022;-74
2022/08/01 11:15:14;;;;;;;0.80;0.43;;;27.60;99.90;;;;;;4977829;28;20465;-74
2022/08/01 11:17:47;;;;;;;0.80;0.33;;;27.50;99.90;;;;;;4971166;28;20445;-78
2022/08/01 11:20:16;;;;;;;0.70;0.10;;;27.20;99.90;;;;;;4976515;28;20990;-77
2022/08/01 11:23:28;;;;;;;0.70;0.20;;;27.00;99.90;;;;;;4976696;28;20533;-78
2022/08/01 11:26:10;;;;;;;0.70;0.20;;;26.90;99.90;;;;;;4976708;28;20442;-77
2022/08/01 11:28:39;;;;;;;0.70;0.10;;;;;;;;;;4976318;28;20545;-77
2022/08/01 11:31:30;;;;;;;0.70;0.10;;;26.80;99.90;;;;;;4970958;28;20497;-76
2022/08/01 11:34:06;;;;;;;0.70;0.30;;;26.80;99.90;;;;;;4978668;28;20470;-76
2022/08/01 11:36:35;;;;;;;0.90;0.50;;;26.70;99.90;;;;;;4976142;28;20939;-77
2022/08/01 11:39:22;;;;;;;0.70;0.20;;;26.90;99.90;;;;;;4969902;28;20485;-76
2022/08/01 11:41:52;;;;;;;0.90;0.20;;;27.30;99.90;;;;;;4976063;28;20451;-78
2022/08/01 11:44:25;;;;;;;1.00;0.47;;;27.30;99.90;;;;;;4967723;28;20542;-77
2022/08/01 11:47:02;;;;;;;0.70;0.20;;;27.40;99.90;;;;;;4975003;28;20445;-77
2022/08/01 11:49:50;;;;;;;0.70;0.13;;;27.30;99.90;;;;;;4975731;28;20821;-77
2022/08/01 11:52:24;;;;;;;0.70;0.10;;;27.60;99.90;;;;;;4975623;28;20501;-78
2022/08/01 11:54:54;;;;;;;0.70;0.10;;;27.70;99.90;;;;;;4975382;28;20529;-76
2022/08/01 11:57:25;;;;;;;0.77;0.27;;;27.90;99.90;;;;;;4975250;28;20502;-77
2022/08/01 12:00:06;;;;;;;0.70;0.10;;;28.00;99.90;;;;;;4976025;28;20461;-77
2022/08/01 12:02:35;;;;;;;0.70;0.10;;;28.20;99.90;;;;;;4975432;28;20470;-76
2022/08/01 12:05:07;;;;;;;0.70;0.30;;;28.30;99.90;;;;;;4971887;28;20918;-76
2022/08/01 12:07:40;;;;;;;0.70;0.10;;;28.50;99.90;;;;;;4966565;28;20501;-77
2022/08/01 12:10:10;;;;;;;0.93;0.50;;;28.80;99.90;;;;;;4971506;28;20453;-77
2022/08/01 12:12:44;;;;;;;0.70;0.20;;;28.90;99.90;;;;;;4970385;28;20530;-76
2022/08/01 12:15:13;;;;;;;0.80;0.43;;;29.00;99.90;;;;;;4956148;28;20473;-77
2022/08/01 12:17:42;;;;;;;0.70;0.20;;;29.10;99.90;;;;;;4956092;28;20473;-76
2022/08/01 12:20:29;;;;;;;0.70;0.10;;;29.20;99.90;;;;;;4964291;28;20465;-78
2022/08/01 12:23:00;;;;;;;0.70;0.10;;;29.20;99.90;;;;;;4971422;28;20556;-76
2022/08/01 12:25:29;;;;;;;0.70;0.13;;;;;;;;;;4973855;28;20470;-77
2022/08/01 12:28:01;;;;;;;2.77;2.60;;;29.20;99.90;;;;;;4973788;28;20477;-78
2022/08/01 12:30:31;;;;;;;0.70;0.20;;;29.30;99.90;;;;;;4975034;28;20513;-77
2022/08/01 12:32:59;;;;;;;0.70;0.20;;;29.40;99.90;;;;;;4975352;28;20489;-78
2022/08/01 12:35:30;;;;;;;0.70;0.20;;;29.50;99.90;;;;;;4976123;28;20811;-77
2022/08/01 12:37:59;;;;;;;0.70;0.17;;;29.50;99.90;;;;;;4975700;28;20450;-77
2022/08/01 12:40:29;;;;;;;0.70;0.20;;;29.60;99.90;;;;;;4978331;28;20450;-77
2022/08/01 12:42:59;;;;;;;0.70;0.10;;;29.60;99.90;;;;;;4973480;28;20470;-77
2022/08/01 12:45:29;;;;;;;0.70;0.10;;;29.60;99.90;;;;;;4974647;28;20450;-77
2022/08/01 12:47:59;;;;;;;1.20;0.50;;;29.40;99.90;;;;;;4975228;28;20474;-78
2022/08/01 12:50:31;;;;;;;0.70;0.20;;;29.00;99.90;;;;;;4974396;28;20450;-78
2022/08/01 12:53:01;;;;;;;0.70;0.10;;;28.90;99.90;;;;;;4964397;28;20474;-77
2022/08/01 12:55:29;;;;;;;0.70;0.10;;;28.80;99.90;;;;;;4974941;28;20462;-76
2022/08/01 12:58:07;;;;;;;0.70;0.10;;;28.70;99.90;;;;;;4975466;28;20469;-76
2022/08/01 13:00:44;;;;;;;0.70;0.20;;;28.60;99.90;;;;;;4975199;28;20804;-77
2022/08/01 13:03:14;;;;;;;0.70;0.20;;;28.60;99.90;;;;;;4974930;28;20522;-77
2022/08/01 13:05:45;;;;;;;0.70;0.20;;;28.60;99.90;;;;;;4974085;28;20446;-77
2022/08/01 13:08:14;;;;;;;0.70;0.20;;;28.60;99.90;;;;;;4974314;28;20453;-77
2022/08/01 13:10:42;;;;;;;0.70;0.10;;;28.70;99.90;;;;;;4975189;28;20948;-77
2022/08/01 13:13:11;;;;;;;0.70;0.20;;;28.70;99.90;;;;;;4972756;28;20553;-78
2022/08/01 13:16:05;;;;;;;0.70;0.10;;;28.70;99.90;;;;;;4974796;28;20460;-78
2022/08/01 13:18:36;;;;;;;0.70;0.17;;;28.70;99.90;;;;;;4974248;28;20450;-78